Hawks, Michigan
Current Conditions -  °F | °C
As of 3:45 AM on Thursday 23 Oct 2014 (Local Time) from KPZQ Reporting Station
Clear Clear  
Wind Chill: 27°   Ceiling: Unl
Heat Index: 34°   Visibility: 10mi
Dew Point: 34°   Wind: 8mph
Humidity: 100%   Direction: 220°SW
Pressure: 30.28"   Gusts: NA
Location:  45.3°N, 83.89°W
Report Text: KPZQ 230745Z AUTO 22007KT 10SM CLR 01/01 A3028 RMK AO2
Loading
Personal Weather Stations






























Interactive Weather Map
Tropical Storm Tracking
New forecast layout! Learn more

10-Day Weather Forecast

Advertisements
Track Severe Weather on mobile